sensor_id;sensor_type;location;lat;lon;timestamp;P1;durP1;ratioP1;P2;durP2;ratioP2
39750;SDS011;37579;51.074;17.004;2022-10-22T00:00:05;5.25;;;3.45;;
39750;SDS011;37579;51.074;17.004;2022-10-22T00:02:33;5.53;;;2.90;;
39750;SDS011;37579;51.074;17.004;2022-10-22T00:04:58;4.97;;;3.22;;
39750;SDS011;37579;51.074;17.004;2022-10-22T00:07:24;5.05;;;3.22;;
39750;SDS011;37579;51.074;17.004;2022-10-22T00:09:50;4.38;;;3.05;;
39750;SDS011;37579;51.074;17.004;2022-10-22T00:12:16;3.83;;;2.75;;
39750;SDS011;37579;51.074;17.004;2022-10-22T00:14:43;4.20;;;3.10;;
39750;SDS011;37579;51.074;17.004;2022-10-22T00:17:08;3.85;;;2.90;;
39750;SDS011;37579;51.074;17.004;2022-10-22T00:19:34;3.67;;;2.85;;
39750;SDS011;37579;51.074;17.004;2022-10-22T00:22:00;4.35;;;3.20;;
39750;SDS011;37579;51.074;17.004;2022-10-22T00:24:30;4.65;;;2.95;;
39750;SDS011;37579;51.074;17.004;2022-10-22T00:26:57;3.85;;;2.97;;
39750;SDS011;37579;51.074;17.004;2022-10-22T00:29:23;3.35;;;2.45;;
39750;SDS011;37579;51.074;17.004;2022-10-22T00:31:49;4.43;;;2.97;;
39750;SDS011;37579;51.074;17.004;2022-10-22T00:34:18;3.50;;;2.38;;
39750;SDS011;37579;51.074;17.004;2022-10-22T00:36:48;4.43;;;2.53;;
39750;SDS011;37579;51.074;17.004;2022-10-22T00:39:16;3.95;;;2.85;;
39750;SDS011;37579;51.074;17.004;2022-10-22T00:41:43;3.85;;;2.60;;
39750;SDS011;37579;51.074;17.004;2022-10-22T00:47:16;4.65;;;2.80;;
39750;SDS011;37579;51.074;17.004;2022-10-22T00:49:44;4.60;;;2.85;;
39750;SDS011;37579;51.074;17.004;2022-10-22T00:52:11;4.75;;;2.90;;
39750;SDS011;37579;51.074;17.004;2022-10-22T00:54:37;3.47;;;2.60;;
39750;SDS011;37579;51.074;17.004;2022-10-22T00:57:05;3.47;;;2.58;;
39750;SDS011;37579;51.074;17.004;2022-10-22T00:59:31;3.42;;;2.42;;
39750;SDS011;37579;51.074;17.004;2022-10-22T01:01:57;4.32;;;2.67;;
39750;SDS011;37579;51.074;17.004;2022-10-22T01:04:23;3.15;;;2.33;;
39750;SDS011;37579;51.074;17.004;2022-10-22T01:06:49;3.75;;;2.80;;
39750;SDS011;37579;51.074;17.004;2022-10-22T01:31:58;3.65;;;2.45;;
39750;SDS011;37579;51.074;17.004;2022-10-22T01:34:28;3.97;;;2.50;;
39750;SDS011;37579;51.074;17.004;2022-10-22T01:36:56;3.40;;;2.30;;
39750;SDS011;37579;51.074;17.004;2022-10-22T01:39:23;3.80;;;2.45;;
39750;SDS011;37579;51.074;17.004;2022-10-22T01:41:53;3.25;;;2.78;;
39750;SDS011;37579;51.074;17.004;2022-10-22T01:44:24;3.88;;;2.88;;
39750;SDS011;37579;51.074;17.004;2022-10-22T01:47:01;3.55;;;2.92;;
39750;SDS011;37579;51.074;17.004;2022-10-22T01:53:34;4.88;;;3.13;;
39750;SDS011;37579;51.074;17.004;2022-10-22T02:01:31;3.45;;;2.35;;
39750;SDS011;37579;51.074;17.004;2022-10-22T02:04:20;3.17;;;2.33;;
39750;SDS011;37579;51.074;17.004;2022-10-22T02:06:47;3.58;;;2.50;;
39750;SDS011;37579;51.074;17.004;2022-10-22T02:09:16;3.88;;;2.42;;
39750;SDS011;37579;51.074;17.004;2022-10-22T02:11:44;3.53;;;2.63;;
39750;SDS011;37579;51.074;17.004;2022-10-22T02:14:11;3.22;;;2.30;;
39750;SDS011;37579;51.074;17.004;2022-10-22T02:16:40;3.15;;;2.20;;
39750;SDS011;37579;51.074;17.004;2022-10-22T02:19:11;3.15;;;2.45;;
39750;SDS011;37579;51.074;17.004;2022-10-22T02:21:49;2.85;;;2.45;;
39750;SDS011;37579;51.074;17.004;2022-10-22T02:24:16;4.38;;;2.63;;
39750;SDS011;37579;51.074;17.004;2022-10-22T02:26:48;3.40;;;2.38;;
39750;SDS011;37579;51.074;17.004;2022-10-22T02:29:26;3.47;;;2.28;;
39750;SDS011;37579;51.074;17.004;2022-10-22T02:31:54;3.20;;;2.13;;
39750;SDS011;37579;51.074;17.004;2022-10-22T02:34:23;3.85;;;2.65;;
39750;SDS011;37579;51.074;17.004;2022-10-22T02:36:54;3.58;;;2.45;;
39750;SDS011;37579;51.074;17.004;2022-10-22T02:39:21;3.20;;;2.40;;
39750;SDS011;37579;51.074;17.004;2022-10-22T02:41:48;2.85;;;2.20;;
39750;SDS011;37579;51.074;17.004;2022-10-22T02:44:13;2.53;;;2.00;;
39750;SDS011;37579;51.074;17.004;2022-10-22T02:46:39;3.40;;;2.65;;
39750;SDS011;37579;51.074;17.004;2022-10-22T02:49:07;3.20;;;2.22;;
39750;SDS011;37579;51.074;17.004;2022-10-22T02:51:33;2.60;;;2.38;;
39750;SDS011;37579;51.074;17.004;2022-10-22T02:53:58;3.50;;;2.25;;
39750;SDS011;37579;51.074;17.004;2022-10-22T02:56:24;2.60;;;2.25;;
39750;SDS011;37579;51.074;17.004;2022-10-22T02:58:51;2.97;;;2.65;;
39750;SDS011;37579;51.074;17.004;2022-10-22T03:01:16;2.50;;;2.10;;
39750;SDS011;37579;51.074;17.004;2022-10-22T03:03:42;3.35;;;2.40;;
39750;SDS011;37579;51.074;17.004;2022-10-22T03:06:08;3.05;;;2.30;;
39750;SDS011;37579;51.074;17.004;2022-10-22T03:08:34;3.55;;;2.17;;
39750;SDS011;37579;51.074;17.004;2022-10-22T03:11:00;3.22;;;2.20;;
39750;SDS011;37579;51.074;17.004;2022-10-22T03:13:25;2.95;;;2.30;;
39750;SDS011;37579;51.074;17.004;2022-10-22T03:15:51;2.90;;;2.35;;
39750;SDS011;37579;51.074;17.004;2022-10-22T03:18:17;3.13;;;2.40;;
39750;SDS011;37579;51.074;17.004;2022-10-22T03:20:43;2.85;;;2.13;;
39750;SDS011;37579;51.074;17.004;2022-10-22T03:23:09;2.30;;;2.10;;
39750;SDS011;37579;51.074;17.004;2022-10-22T03:25:39;3.15;;;2.15;;
39750;SDS011;37579;51.074;17.004;2022-10-22T03:28:06;2.60;;;2.00;;
39750;SDS011;37579;51.074;17.004;2022-10-22T03:30:35;2.17;;;1.80;;
39750;SDS011;37579;51.074;17.004;2022-10-22T03:33:01;2.90;;;2.17;;
39750;SDS011;37579;51.074;17.004;2022-10-22T03:35:27;3.78;;;2.47;;
39750;SDS011;37579;51.074;17.004;2022-10-22T03:37:54;2.88;;;2.22;;
39750;SDS011;37579;51.074;17.004;2022-10-22T03:40:20;2.45;;;2.17;;
39750;SDS011;37579;51.074;17.004;2022-10-22T03:42:46;2.88;;;2.00;;
39750;SDS011;37579;51.074;17.004;2022-10-22T03:45:12;2.70;;;2.30;;
39750;SDS011;37579;51.074;17.004;2022-10-22T03:47:38;3.45;;;2.42;;
39750;SDS011;37579;51.074;17.004;2022-10-22T03:50:04;2.45;;;1.92;;
39750;SDS011;37579;51.074;17.004;2022-10-22T03:52:34;2.40;;;1.88;;
39750;SDS011;37579;51.074;17.004;2022-10-22T03:55:02;3.83;;;2.00;;
39750;SDS011;37579;51.074;17.004;2022-10-22T03:57:28;3.25;;;2.10;;
39750;SDS011;37579;51.074;17.004;2022-10-22T03:59:54;2.38;;;2.13;;
39750;SDS011;37579;51.074;17.004;2022-10-22T04:02:19;2.75;;;2.05;;
39750;SDS011;37579;51.074;17.004;2022-10-22T04:04:46;2.25;;;1.90;;
39750;SDS011;37579;51.074;17.004;2022-10-22T04:07:11;2.40;;;1.95;;
39750;SDS011;37579;51.074;17.004;2022-10-22T04:09:37;2.78;;;2.33;;
39750;SDS011;37579;51.074;17.004;2022-10-22T04:12:03;2.70;;;2.20;;
39750;SDS011;37579;51.074;17.004;2022-10-22T04:14:30;2.70;;;2.22;;
39750;SDS011;37579;51.074;17.004;2022-10-22T04:16:56;2.03;;;1.83;;
39750;SDS011;37579;51.074;17.004;2022-10-22T04:19:22;2.22;;;1.95;;
39750;SDS011;37579;51.074;17.004;2022-10-22T04:21:48;2.92;;;2.17;;
39750;SDS011;37579;51.074;17.004;2022-10-22T04:24:14;2.90;;;2.17;;
39750;SDS011;37579;51.074;17.004;2022-10-22T04:26:39;2.08;;;1.80;;
39750;SDS011;37579;51.074;17.004;2022-10-22T04:29:06;2.00;;;1.75;;
39750;SDS011;37579;51.074;17.004;2022-10-22T04:31:32;2.90;;;2.13;;
39750;SDS011;37579;51.074;17.004;2022-10-22T04:33:59;2.40;;;2.17;;
39750;SDS011;37579;51.074;17.004;2022-10-22T04:36:26;2.20;;;2.00;;
39750;SDS011;37579;51.074;17.004;2022-10-22T04:38:59;2.30;;;2.10;;
39750;SDS011;37579;51.074;17.004;2022-10-22T04:43:53;2.10;;;1.90;;
39750;SDS011;37579;51.074;17.004;2022-10-22T04:46:20;2.72;;;2.10;;
39750;SDS011;37579;51.074;17.004;2022-10-22T04:48:46;3.17;;;2.00;;
39750;SDS011;37579;51.074;17.004;2022-10-22T04:51:14;1.80;;;1.50;;
39750;SDS011;37579;51.074;17.004;2022-10-22T04:53:42;2.95;;;2.08;;
39750;SDS011;37579;51.074;17.004;2022-10-22T04:56:09;2.55;;;1.90;;
39750;SDS011;37579;51.074;17.004;2022-10-22T04:58:37;2.13;;;1.80;;
39750;SDS011;37579;51.074;17.004;2022-10-22T05:04:03;1.98;;;1.67;;
39750;SDS011;37579;51.074;17.004;2022-10-22T05:06:32;2.33;;;2.00;;
39750;SDS011;37579;51.074;17.004;2022-10-22T05:09:02;2.45;;;1.77;;
39750;SDS011;37579;51.074;17.004;2022-10-22T05:11:31;2.78;;;1.90;;
39750;SDS011;37579;51.074;17.004;2022-10-22T05:13:59;2.63;;;2.10;;
39750;SDS011;37579;51.074;17.004;2022-10-22T05:16:29;1.98;;;1.70;;
39750;SDS011;37579;51.074;17.004;2022-10-22T05:18:56;2.10;;;1.77;;
39750;SDS011;37579;51.074;17.004;2022-10-22T05:21:23;2.92;;;2.00;;
39750;SDS011;37579;51.074;17.004;2022-10-22T05:23:49;3.35;;;1.83;;
39750;SDS011;37579;51.074;17.004;2022-10-22T05:26:16;2.38;;;1.80;;
39750;SDS011;37579;51.074;17.004;2022-10-22T05:28:45;2.03;;;1.83;;
39750;SDS011;37579;51.074;17.004;2022-10-22T05:31:13;2.50;;;1.83;;
39750;SDS011;37579;51.074;17.004;2022-10-22T05:33:40;1.50;;;1.40;;
39750;SDS011;37579;51.074;17.004;2022-10-22T05:36:06;1.88;;;1.63;;
39750;SDS011;37579;51.074;17.004;2022-10-22T05:38:33;2.33;;;2.00;;
39750;SDS011;37579;51.074;17.004;2022-10-22T05:41:01;2.58;;;1.95;;
39750;SDS011;37579;51.074;17.004;2022-10-22T05:43:34;2.35;;;1.95;;
39750;SDS011;37579;51.074;17.004;2022-10-22T05:46:11;3.22;;;2.08;;
39750;SDS011;37579;51.074;17.004;2022-10-22T05:51:19;2.20;;;2.00;;
39750;SDS011;37579;51.074;17.004;2022-10-22T05:53:49;2.67;;;1.98;;
39750;SDS011;37579;51.074;17.004;2022-10-22T05:56:20;2.13;;;1.65;;
39750;SDS011;37579;51.074;17.004;2022-10-22T05:58:47;2.90;;;2.35;;
39750;SDS011;37579;51.074;17.004;2022-10-22T06:01:14;2.55;;;2.20;;
39750;SDS011;37579;51.074;17.004;2022-10-22T06:03:42;2.35;;;2.03;;
39750;SDS011;37579;51.074;17.004;2022-10-22T06:06:19;2.88;;;2.03;;
39750;SDS011;37579;51.074;17.004;2022-10-22T06:09:16;2.72;;;2.00;;
39750;SDS011;37579;51.074;17.004;2022-10-22T06:11:47;2.92;;;2.10;;
39750;SDS011;37579;51.074;17.004;2022-10-22T06:14:15;3.63;;;2.10;;
39750;SDS011;37579;51.074;17.004;2022-10-22T06:16:41;2.97;;;1.88;;
39750;SDS011;37579;51.074;17.004;2022-10-22T06:19:08;4.03;;;1.98;;
39750;SDS011;37579;51.074;17.004;2022-10-22T06:21:38;2.25;;;1.95;;
39750;SDS011;37579;51.074;17.004;2022-10-22T06:24:04;2.15;;;1.95;;
39750;SDS011;37579;51.074;17.004;2022-10-22T06:26:30;3.22;;;1.75;;
39750;SDS011;37579;51.074;17.004;2022-10-22T06:28:56;2.83;;;2.00;;
39750;SDS011;37579;51.074;17.004;2022-10-22T06:31:23;2.58;;;2.17;;
39750;SDS011;37579;51.074;17.004;2022-10-22T06:33:50;2.83;;;1.80;;
39750;SDS011;37579;51.074;17.004;2022-10-22T06:36:17;2.17;;;1.67;;
39750;SDS011;37579;51.074;17.004;2022-10-22T06:38:45;3.95;;;2.08;;
39750;SDS011;37579;51.074;17.004;2022-10-22T06:41:12;2.20;;;1.55;;
39750;SDS011;37579;51.074;17.004;2022-10-22T06:43:39;2.70;;;1.85;;
39750;SDS011;37579;51.074;17.004;2022-10-22T06:46:09;3.08;;;1.65;;
39750;SDS011;37579;51.074;17.004;2022-10-22T06:48:36;2.92;;;1.77;;
39750;SDS011;37579;51.074;17.004;2022-10-22T06:51:03;2.53;;;1.83;;
39750;SDS011;37579;51.074;17.004;2022-10-22T06:53:30;3.78;;;2.03;;
39750;SDS011;37579;51.074;17.004;2022-10-22T06:55:56;2.85;;;1.88;;
39750;SDS011;37579;51.074;17.004;2022-10-22T06:58:22;3.15;;;1.90;;
39750;SDS011;37579;51.074;17.004;2022-10-22T07:00:48;7.32;;;2.78;;
39750;SDS011;37579;51.074;17.004;2022-10-22T07:03:14;2.65;;;1.80;;
39750;SDS011;37579;51.074;17.004;2022-10-22T07:05:40;3.88;;;1.90;;
39750;SDS011;37579;51.074;17.004;2022-10-22T07:08:06;3.25;;;1.73;;
39750;SDS011;37579;51.074;17.004;2022-10-22T07:10:32;2.45;;;2.05;;
39750;SDS011;37579;51.074;17.004;2022-10-22T07:12:58;4.25;;;1.83;;
39750;SDS011;37579;51.074;17.004;2022-10-22T07:15:24;3.15;;;1.90;;
39750;SDS011;37579;51.074;17.004;2022-10-22T07:17:50;3.83;;;1.98;;
39750;SDS011;37579;51.074;17.004;2022-10-22T07:20:19;2.88;;;1.83;;
39750;SDS011;37579;51.074;17.004;2022-10-22T07:22:45;3.42;;;2.00;;
39750;SDS011;37579;51.074;17.004;2022-10-22T07:25:11;3.33;;;2.05;;
39750;SDS011;37579;51.074;17.004;2022-10-22T07:27:37;2.83;;;1.88;;
39750;SDS011;37579;51.074;17.004;2022-10-22T07:30:03;3.10;;;2.00;;
39750;SDS011;37579;51.074;17.004;2022-10-22T07:32:29;5.50;;;2.10;;
39750;SDS011;37579;51.074;17.004;2022-10-22T07:34:55;3.95;;;1.80;;
39750;SDS011;37579;51.074;17.004;2022-10-22T07:37:20;2.13;;;1.73;;
39750;SDS011;37579;51.074;17.004;2022-10-22T07:39:47;2.20;;;1.80;;
39750;SDS011;37579;51.074;17.004;2022-10-22T07:42:13;2.30;;;1.77;;
39750;SDS011;37579;51.074;17.004;2022-10-22T07:44:39;3.97;;;2.38;;
39750;SDS011;37579;51.074;17.004;2022-10-22T07:47:04;3.22;;;1.88;;
39750;SDS011;37579;51.074;17.004;2022-10-22T07:49:30;3.13;;;1.88;;
39750;SDS011;37579;51.074;17.004;2022-10-22T07:51:56;2.92;;;1.55;;
39750;SDS011;37579;51.074;17.004;2022-10-22T07:54:22;3.92;;;2.13;;
39750;SDS011;37579;51.074;17.004;2022-10-22T07:56:48;3.05;;;1.80;;
39750;SDS011;37579;51.074;17.004;2022-10-22T07:59:14;3.92;;;1.90;;
39750;SDS011;37579;51.074;17.004;2022-10-22T08:01:40;4.03;;;2.13;;
39750;SDS011;37579;51.074;17.004;2022-10-22T08:04:05;2.90;;;1.83;;
39750;SDS011;37579;51.074;17.004;2022-10-22T08:06:34;3.30;;;1.60;;
39750;SDS011;37579;51.074;17.004;2022-10-22T08:09:00;3.28;;;2.30;;
39750;SDS011;37579;51.074;17.004;2022-10-22T08:11:26;2.88;;;1.90;;
39750;SDS011;37579;51.074;17.004;2022-10-22T08:13:52;3.55;;;1.95;;
39750;SDS011;37579;51.074;17.004;2022-10-22T08:16:18;4.05;;;2.05;;
39750;SDS011;37579;51.074;17.004;2022-10-22T08:18:44;3.28;;;2.00;;
39750;SDS011;37579;51.074;17.004;2022-10-22T08:21:10;2.83;;;2.15;;
39750;SDS011;37579;51.074;17.004;2022-10-22T08:23:37;4.30;;;1.90;;
39750;SDS011;37579;51.074;17.004;2022-10-22T08:26:03;2.85;;;1.92;;
39750;SDS011;37579;51.074;17.004;2022-10-22T08:28:29;7.03;;;2.13;;
39750;SDS011;37579;51.074;17.004;2022-10-22T08:30:57;5.68;;;2.63;;
39750;SDS011;37579;51.074;17.004;2022-10-22T08:33:23;2.67;;;2.03;;
39750;SDS011;37579;51.074;17.004;2022-10-22T08:35:49;4.35;;;2.50;;
39750;SDS011;37579;51.074;17.004;2022-10-22T08:38:16;4.53;;;2.47;;
39750;SDS011;37579;51.074;17.004;2022-10-22T08:40:43;3.55;;;2.30;;
39750;SDS011;37579;51.074;17.004;2022-10-22T08:46:18;4.68;;;2.55;;
39750;SDS011;37579;51.074;17.004;2022-10-22T08:48:49;6.78;;;2.65;;
39750;SDS011;37579;51.074;17.004;2022-10-22T08:51:19;4.55;;;2.47;;
39750;SDS011;37579;51.074;17.004;2022-10-22T08:56:42;6.57;;;2.60;;
39750;SDS011;37579;51.074;17.004;2022-10-22T09:01:56;5.03;;;2.22;;
39750;SDS011;37579;51.074;17.004;2022-10-22T09:04:25;3.72;;;2.35;;
39750;SDS011;37579;51.074;17.004;2022-10-22T09:06:57;6.22;;;2.65;;
39750;SDS011;37579;51.074;17.004;2022-10-22T09:09:34;5.25;;;2.83;;
39750;SDS011;37579;51.074;17.004;2022-10-22T09:12:09;6.03;;;2.72;;
39750;SDS011;37579;51.074;17.004;2022-10-22T09:14:38;4.70;;;2.55;;
39750;SDS011;37579;51.074;17.004;2022-10-22T09:17:10;8.95;;;3.25;;
39750;SDS011;37579;51.074;17.004;2022-10-22T09:27:59;5.03;;;3.05;;
39750;SDS011;37579;51.074;17.004;2022-10-22T09:30:27;6.78;;;2.90;;
39750;SDS011;37579;51.074;17.004;2022-10-22T09:33:05;4.75;;;3.10;;
39750;SDS011;37579;51.074;17.004;2022-10-22T09:35:44;7.43;;;3.10;;
39750;SDS011;37579;51.074;17.004;2022-10-22T09:38:18;6.65;;;3.72;;
39750;SDS011;37579;51.074;17.004;2022-10-22T09:40:48;9.35;;;4.25;;
39750;SDS011;37579;51.074;17.004;2022-10-22T09:43:16;8.80;;;4.38;;
39750;SDS011;37579;51.074;17.004;2022-10-22T09:45:42;16.73;;;4.65;;
39750;SDS011;37579;51.074;17.004;2022-10-22T09:48:11;10.95;;;4.45;;
39750;SDS011;37579;51.074;17.004;2022-10-22T09:50:58;11.38;;;5.10;;
39750;SDS011;37579;51.074;17.004;2022-10-22T09:53:38;9.90;;;5.07;;
39750;SDS011;37579;51.074;17.004;2022-10-22T09:56:25;8.48;;;4.57;;
39750;SDS011;37579;51.074;17.004;2022-10-22T09:58:51;9.55;;;4.93;;
39750;SDS011;37579;51.074;17.004;2022-10-22T10:01:22;9.18;;;4.78;;
39750;SDS011;37579;51.074;17.004;2022-10-22T10:03:50;9.40;;;5.07;;
39750;SDS011;37579;51.074;17.004;2022-10-22T10:06:17;9.95;;;4.90;;
39750;SDS011;37579;51.074;17.004;2022-10-22T10:08:44;10.90;;;5.43;;
39750;SDS011;37579;51.074;17.004;2022-10-22T10:11:14;12.52;;;5.65;;
39750;SDS011;37579;51.074;17.004;2022-10-22T10:13:48;9.57;;;4.75;;
39750;SDS011;37579;51.074;17.004;2022-10-22T10:19:19;9.93;;;4.90;;
39750;SDS011;37579;51.074;17.004;2022-10-22T10:22:01;13.02;;;5.43;;
39750;SDS011;37579;51.074;17.004;2022-10-22T10:24:57;22.08;;;6.65;;
39750;SDS011;37579;51.074;17.004;2022-10-22T10:27:47;21.10;;;7.13;;
39750;SDS011;37579;51.074;17.004;2022-10-22T10:30:19;21.57;;;7.23;;
39750;SDS011;37579;51.074;17.004;2022-10-22T10:41:06;23.15;;;7.57;;
39750;SDS011;37579;51.074;17.004;2022-10-22T10:43:41;25.17;;;7.30;;
39750;SDS011;37579;51.074;17.004;2022-10-22T10:59:37;20.13;;;6.75;;
39750;SDS011;37579;51.074;17.004;2022-10-22T11:02:20;16.85;;;7.07;;
39750;SDS011;37579;51.074;17.004;2022-10-22T11:07:48;20.90;;;6.57;;
39750;SDS011;37579;51.074;17.004;2022-10-22T11:10:26;18.80;;;6.38;;
39750;SDS011;37579;51.074;17.004;2022-10-22T11:13:21;17.40;;;6.70;;
39750;SDS011;37579;51.074;17.004;2022-10-22T11:15:57;19.00;;;7.30;;
39750;SDS011;37579;51.074;17.004;2022-10-22T11:18:42;19.63;;;6.97;;
39750;SDS011;37579;51.074;17.004;2022-10-22T11:21:18;13.68;;;6.32;;
39750;SDS011;37579;51.074;17.004;2022-10-22T11:23:49;16.08;;;6.32;;
39750;SDS011;37579;51.074;17.004;2022-10-22T11:31:43;14.35;;;5.95;;
39750;SDS011;37579;51.074;17.004;2022-10-22T11:34:20;14.52;;;5.97;;
39750;SDS011;37579;51.074;17.004;2022-10-22T11:36:58;21.92;;;7.80;;
39750;SDS011;37579;51.074;17.004;2022-10-22T11:42:08;13.90;;;5.88;;
39750;SDS011;37579;51.074;17.004;2022-10-22T11:44:45;12.25;;;6.32;;
39750;SDS011;37579;51.074;17.004;2022-10-22T11:47:19;14.48;;;5.97;;
39750;SDS011;37579;51.074;17.004;2022-10-22T11:56:20;12.70;;;5.43;;
39750;SDS011;37579;51.074;17.004;2022-10-22T11:58:28;18.27;;;5.85;;
39750;SDS011;37579;51.074;17.004;2022-10-22T12:13:52;16.35;;;5.50;;
39750;SDS011;37579;51.074;17.004;2022-10-22T12:16:24;14.25;;;5.25;;
39750;SDS011;37579;51.074;17.004;2022-10-22T12:19:00;10.93;;;5.13;;
39750;SDS011;37579;51.074;17.004;2022-10-22T12:21:50;17.10;;;6.32;;
39750;SDS011;37579;51.074;17.004;2022-10-22T12:24:21;10.55;;;5.13;;
39750;SDS011;37579;51.074;17.004;2022-10-22T12:26:48;11.90;;;6.00;;
39750;SDS011;37579;51.074;17.004;2022-10-22T12:29:17;15.75;;;6.13;;
39750;SDS011;37579;51.074;17.004;2022-10-22T12:31:45;10.90;;;5.68;;
39750;SDS011;37579;51.074;17.004;2022-10-22T12:34:20;11.30;;;5.60;;
39750;SDS011;37579;51.074;17.004;2022-10-22T12:36:48;12.38;;;5.75;;
39750;SDS011;37579;51.074;17.004;2022-10-22T12:39:17;12.70;;;5.05;;
39750;SDS011;37579;51.074;17.004;2022-10-22T12:41:49;9.80;;;5.07;;
39750;SDS011;37579;51.074;17.004;2022-10-22T12:44:17;11.30;;;5.22;;
39750;SDS011;37579;51.074;17.004;2022-10-22T12:46:44;10.43;;;5.43;;
39750;SDS011;37579;51.074;17.004;2022-10-22T12:49:21;15.32;;;6.03;;
39750;SDS011;37579;51.074;17.004;2022-10-22T12:51:49;11.45;;;5.10;;
39750;SDS011;37579;51.074;17.004;2022-10-22T12:54:22;9.65;;;5.18;;
39750;SDS011;37579;51.074;17.004;2022-10-22T12:56:54;9.63;;;4.88;;
39750;SDS011;37579;51.074;17.004;2022-10-22T12:59:22;8.52;;;4.72;;
39750;SDS011;37579;51.074;17.004;2022-10-22T13:01:53;10.30;;;5.30;;
39750;SDS011;37579;51.074;17.004;2022-10-22T13:04:31;10.18;;;5.45;;
39750;SDS011;37579;51.074;17.004;2022-10-22T13:09:37;8.63;;;4.35;;
39750;SDS011;37579;51.074;17.004;2022-10-22T13:12:05;10.95;;;5.28;;
39750;SDS011;37579;51.074;17.004;2022-10-22T13:14:35;10.43;;;5.05;;
39750;SDS011;37579;51.074;17.004;2022-10-22T13:19:43;8.65;;;4.90;;
39750;SDS011;37579;51.074;17.004;2022-10-22T13:27:43;9.15;;;4.75;;
39750;SDS011;37579;51.074;17.004;2022-10-22T13:32:55;9.93;;;4.75;;
39750;SDS011;37579;51.074;17.004;2022-10-22T13:35:35;7.32;;;4.38;;
39750;SDS011;37579;51.074;17.004;2022-10-22T13:38:04;7.85;;;4.35;;
39750;SDS011;37579;51.074;17.004;2022-10-22T13:40:39;10.05;;;5.32;;
39750;SDS011;37579;51.074;17.004;2022-10-22T13:43:05;7.78;;;4.13;;
39750;SDS011;37579;51.074;17.004;2022-10-22T13:45:30;7.65;;;4.32;;
39750;SDS011;37579;51.074;17.004;2022-10-22T13:47:56;8.77;;;4.55;;
39750;SDS011;37579;51.074;17.004;2022-10-22T13:50:22;8.00;;;4.75;;
39750;SDS011;37579;51.074;17.004;2022-10-22T13:52:57;10.80;;;4.15;;
39750;SDS011;37579;51.074;17.004;2022-10-22T13:55:24;9.25;;;4.32;;
39750;SDS011;37579;51.074;17.004;2022-10-22T13:57:52;7.45;;;3.97;;
39750;SDS011;37579;51.074;17.004;2022-10-22T14:00:24;6.85;;;4.00;;
39750;SDS011;37579;51.074;17.004;2022-10-22T14:02:51;7.78;;;4.30;;
39750;SDS011;37579;51.074;17.004;2022-10-22T14:05:19;8.30;;;4.07;;
39750;SDS011;37579;51.074;17.004;2022-10-22T14:07:46;5.80;;;3.33;;
39750;SDS011;37579;51.074;17.004;2022-10-22T14:10:16;5.20;;;3.55;;
39750;SDS011;37579;51.074;17.004;2022-10-22T14:12:45;7.35;;;4.28;;
39750;SDS011;37579;51.074;17.004;2022-10-22T14:15:12;7.80;;;4.15;;
39750;SDS011;37579;51.074;17.004;2022-10-22T14:17:41;7.10;;;3.95;;
39750;SDS011;37579;51.074;17.004;2022-10-22T14:20:14;8.00;;;4.25;;
39750;SDS011;37579;51.074;17.004;2022-10-22T14:22:43;6.70;;;4.20;;
39750;SDS011;37579;51.074;17.004;2022-10-22T14:25:15;8.13;;;4.22;;
39750;SDS011;37579;51.074;17.004;2022-10-22T14:27:45;5.85;;;3.58;;
39750;SDS011;37579;51.074;17.004;2022-10-22T14:30:15;6.97;;;3.60;;
39750;SDS011;37579;51.074;17.004;2022-10-22T14:32:46;6.60;;;3.95;;
39750;SDS011;37579;51.074;17.004;2022-10-22T14:35:13;6.72;;;4.00;;
39750;SDS011;37579;51.074;17.004;2022-10-22T14:37:44;5.63;;;3.58;;
39750;SDS011;37579;51.074;17.004;2022-10-22T14:40:11;6.50;;;4.15;;
39750;SDS011;37579;51.074;17.004;2022-10-22T14:42:39;6.47;;;3.85;;
39750;SDS011;37579;51.074;17.004;2022-10-22T14:47:38;6.07;;;3.78;;
39750;SDS011;37579;51.074;17.004;2022-10-22T14:50:04;8.70;;;4.05;;
39750;SDS011;37579;51.074;17.004;2022-10-22T14:52:32;5.43;;;3.70;;
39750;SDS011;37579;51.074;17.004;2022-10-22T14:54:58;7.72;;;4.20;;
39750;SDS011;37579;51.074;17.004;2022-10-22T14:57:24;6.03;;;3.67;;
39750;SDS011;37579;51.074;17.004;2022-10-22T14:59:50;5.78;;;3.40;;
39750;SDS011;37579;51.074;17.004;2022-10-22T15:02:18;6.07;;;3.25;;
39750;SDS011;37579;51.074;17.004;2022-10-22T15:04:45;5.75;;;3.53;;
39750;SDS011;37579;51.074;17.004;2022-10-22T15:07:12;5.55;;;3.40;;
39750;SDS011;37579;51.074;17.004;2022-10-22T15:09:37;5.93;;;3.70;;
39750;SDS011;37579;51.074;17.004;2022-10-22T15:12:03;7.45;;;3.53;;
39750;SDS011;37579;51.074;17.004;2022-10-22T15:14:29;5.10;;;3.50;;
39750;SDS011;37579;51.074;17.004;2022-10-22T15:16:55;6.10;;;3.40;;
39750;SDS011;37579;51.074;17.004;2022-10-22T15:19:21;4.85;;;3.33;;
39750;SDS011;37579;51.074;17.004;2022-10-22T15:21:47;7.18;;;3.40;;
39750;SDS011;37579;51.074;17.004;2022-10-22T15:24:13;4.70;;;3.40;;
39750;SDS011;37579;51.074;17.004;2022-10-22T15:26:39;4.55;;;3.05;;
39750;SDS011;37579;51.074;17.004;2022-10-22T15:29:04;5.85;;;3.63;;
39750;SDS011;37579;51.074;17.004;2022-10-22T15:31:44;5.22;;;2.92;;
39750;SDS011;37579;51.074;17.004;2022-10-22T15:34:30;4.88;;;3.33;;
39750;SDS011;37579;51.074;17.004;2022-10-22T15:37:00;4.70;;;3.10;;
39750;SDS011;37579;51.074;17.004;2022-10-22T15:39:28;4.70;;;2.85;;
39750;SDS011;37579;51.074;17.004;2022-10-22T15:41:54;5.65;;;3.30;;
39750;SDS011;37579;51.074;17.004;2022-10-22T15:44:21;4.45;;;3.10;;
39750;SDS011;37579;51.074;17.004;2022-10-22T15:46:49;6.38;;;3.15;;
39750;SDS011;37579;51.074;17.004;2022-10-22T15:49:15;4.93;;;3.50;;
39750;SDS011;37579;51.074;17.004;2022-10-22T15:51:42;4.28;;;3.42;;
39750;SDS011;37579;51.074;17.004;2022-10-22T15:54:10;5.00;;;3.03;;
39750;SDS011;37579;51.074;17.004;2022-10-22T15:56:38;5.88;;;3.60;;
39750;SDS011;37579;51.074;17.004;2022-10-22T15:59:04;4.55;;;2.92;;
39750;SDS011;37579;51.074;17.004;2022-10-22T16:01:31;4.43;;;3.22;;
39750;SDS011;37579;51.074;17.004;2022-10-22T16:03:58;5.13;;;3.08;;
39750;SDS011;37579;51.074;17.004;2022-10-22T16:06:27;5.55;;;2.90;;
39750;SDS011;37579;51.074;17.004;2022-10-22T16:08:55;4.32;;;2.92;;
39750;SDS011;37579;51.074;17.004;2022-10-22T16:11:22;4.07;;;3.15;;
39750;SDS011;37579;51.074;17.004;2022-10-22T16:13:51;4.22;;;3.05;;
39750;SDS011;37579;51.074;17.004;2022-10-22T16:18:51;3.88;;;2.78;;
39750;SDS011;37579;51.074;17.004;2022-10-22T16:21:18;4.43;;;2.90;;
39750;SDS011;37579;51.074;17.004;2022-10-22T16:23:44;4.28;;;3.10;;
39750;SDS011;37579;51.074;17.004;2022-10-22T16:26:11;3.97;;;2.72;;
39750;SDS011;37579;51.074;17.004;2022-10-22T16:28:39;4.18;;;2.95;;
39750;SDS011;37579;51.074;17.004;2022-10-22T16:31:07;4.25;;;2.92;;
39750;SDS011;37579;51.074;17.004;2022-10-22T16:33:35;4.50;;;3.10;;
39750;SDS011;37579;51.074;17.004;2022-10-22T16:36:03;3.83;;;2.80;;
39750;SDS011;37579;51.074;17.004;2022-10-22T16:38:30;5.57;;;2.97;;
39750;SDS011;37579;51.074;17.004;2022-10-22T16:41:06;4.32;;;2.85;;
39750;SDS011;37579;51.074;17.004;2022-10-22T16:43:33;4.15;;;2.92;;
39750;SDS011;37579;51.074;17.004;2022-10-22T16:45:59;4.15;;;3.00;;
39750;SDS011;37579;51.074;17.004;2022-10-22T16:48:24;7.45;;;3.55;;
39750;SDS011;37579;51.074;17.004;2022-10-22T16:50:50;4.13;;;2.75;;
39750;SDS011;37579;51.074;17.004;2022-10-22T16:53:16;6.68;;;3.25;;
39750;SDS011;37579;51.074;17.004;2022-10-22T16:55:42;5.07;;;3.00;;